Time;durP1;ratioP1;P1;durP2;ratioP2;P2;SDS_P1;SDS_P2;PMS_P1;PMS_P2;Temp;Humidity;BMP_temperature;BMP_pressure;BME280_temperature;BME280_humidity;BME280_pressure;Samples;Min_cycle;Max_cycle;Signal;HPM_P1;HPM_P2
2023/09/03 00:00:52;;;;;;;10.82;8.43;;;14.40;99.90;;;;;;5078985;28;20505;-76
2023/09/03 00:03:17;;;;;;;10.77;8.85;;;14.40;99.90;;;;;;5085195;28;20040;-76
2023/09/03 00:05:51;;;;;;;12.35;7.63;;;14.40;99.90;;;;;;5058906;28;20041;-76
2023/09/03 00:08:17;;;;;;;11.93;8.85;;;14.30;99.90;;;;;;5074391;28;20398;-76
2023/09/03 00:10:43;;;;;;;12.25;8.70;;;14.30;99.90;;;;;;5078368;28;20040;-76
2023/09/03 00:13:08;;;;;;;10.10;7.95;;;14.20;99.90;;;;;;5080671;28;20048;-76
2023/09/03 00:15:39;;;;;;;14.07;7.60;;;14.20;99.90;;;;;;5073940;28;20106;-76
2023/09/03 00:18:08;;;;;;;12.77;7.93;;;14.20;99.90;;;;;;5056672;28;20051;-76
2023/09/03 00:20:34;;;;;;;13.00;9.07;;;14.20;99.90;;;;;;5085160;28;20039;-76
2023/09/03 00:22:59;;;;;;;14.73;8.65;;;14.20;99.90;;;;;;5085255;28;20105;-76
2023/09/03 00:25:25;;;;;;;12.82;9.38;;;14.10;99.90;;;;;;5083128;28;20177;-76
2023/09/03 00:27:51;;;;;;;12.65;9.13;;;14.10;99.90;;;;;;5083335;28;20040;-76
2023/09/03 00:30:16;;;;;;;12.23;8.43;;;14.10;99.90;;;;;;5082688;28;20111;-76
2023/09/03 00:32:42;;;;;;;14.85;8.57;;;14.10;99.90;;;;;;5087079;28;20447;-76
2023/09/03 00:35:08;;;;;;;12.80;9.00;;;14.10;99.90;;;;;;5085058;28;20515;-76
2023/09/03 00:37:33;;;;;;;13.23;8.13;;;14.10;99.90;;;;;;5092736;28;20036;-76
2023/09/03 00:39:59;;;;;;;12.85;9.90;;;14.10;99.90;;;;;;5076322;28;20048;-76
2023/09/03 00:42:26;;;;;;;13.50;8.88;;;14.00;99.90;;;;;;5073207;28;20133;-76
2023/09/03 00:44:53;;;;;;;11.07;9.15;;;14.00;99.90;;;;;;5073837;28;20467;-76
2023/09/03 00:47:19;;;;;;;14.05;10.20;;;14.00;99.90;;;;;;5083482;28;20085;-74
2023/09/03 00:49:45;;;;;;;12.65;9.63;;;14.00;99.90;;;;;;5085621;28;20048;-75
2023/09/03 00:52:12;;;;;;;14.48;9.70;;;13.90;99.90;;;;;;5075180;28;20094;-76
2023/09/03 00:54:38;;;;;;;14.95;10.25;;;14.00;99.90;;;;;;5073767;28;20123;-76
2023/09/03 00:57:04;;;;;;;14.82;9.85;;;13.90;99.90;;;;;;5082484;28;20143;-76
2023/09/03 00:59:30;;;;;;;14.30;9.07;;;13.90;99.90;;;;;;5081974;28;20036;-76
2023/09/03 01:01:56;;;;;;;16.23;10.40;;;13.90;99.90;;;;;;5081535;28;20532;-76
2023/09/03 01:04:22;;;;;;;14.32;10.35;;;13.90;99.90;;;;;;5080999;28;20471;-76
2023/09/03 01:06:49;;;;;;;12.77;8.63;;;13.90;99.90;;;;;;5088696;28;20055;-76
2023/09/03 01:09:17;;;;;;;14.23;9.02;;;13.80;99.90;;;;;;5088006;28;20497;-74
2023/09/03 01:11:48;;;;;;;13.70;9.45;;;13.90;99.90;;;;;;5074140;28;20129;-75
2023/09/03 01:14:43;;;;;;;11.05;8.52;;;13.80;99.90;;;;;;5077904;28;20456;-75
2023/09/03 01:17:17;;;;;;;9.93;8.60;;;13.90;99.90;;;;;;5074830;28;20440;-75
2023/09/03 01:20:20;;;;;;;12.68;9.05;;;13.80;99.90;;;;;;5079791;28;20051;-75
2023/09/03 01:23:03;;;;;;;14.15;8.95;;;13.80;99.90;;;;;;5072208;28;20063;-75
2023/09/03 01:25:35;;;;;;;14.07;8.52;;;13.80;99.90;;;;;;5074641;28;20390;-76
2023/09/03 01:28:25;;;;;;;10.38;8.38;;;13.80;99.90;;;;;;5079552;28;20048;-76
2023/09/03 01:31:03;;;;;;;11.82;8.60;;;13.80;99.90;;;;;;5072459;28;20041;-76
2023/09/03 01:33:31;;;;;;;10.80;8.43;;;13.80;99.90;;;;;;5079872;28;20037;-76
2023/09/03 01:35:57;;;;;;;20.35;9.38;;;13.80;99.90;;;;;;5084665;28;20169;-76
2023/09/03 01:38:23;;;;;;;11.32;8.05;;;13.80;99.90;;;;;;5084545;28;20105;-76
2023/09/03 01:40:50;;;;;;;13.77;8.73;;;13.80;99.90;;;;;;5082877;28;20591;-76
2023/09/03 01:43:16;;;;;;;13.18;8.85;;;13.80;99.90;;;;;;5086160;28;20398;-76
2023/09/03 01:46:00;;;;;;;11.80;8.90;;;13.80;99.90;;;;;;5065239;28;20041;-76
2023/09/03 01:48:46;;;;;;;11.10;8.80;;;13.80;99.90;;;;;;5077195;28;20498;-76
2023/09/03 01:51:40;;;;;;;13.82;8.35;;;13.80;99.90;;;;;;5105566;28;20055;-76
2023/09/03 01:54:18;;;;;;;9.35;8.20;;;13.80;99.90;;;;;;5076909;28;20040;-76
2023/09/03 01:56:55;;;;;;;12.02;8.93;;;13.80;99.90;;;;;;5087010;28;20080;-76
2023/09/03 01:59:27;;;;;;;13.20;8.60;;;13.80;99.90;;;;;;5083927;28;20036;-75
2023/09/03 02:01:53;;;;;;;10.38;8.02;;;13.80;99.90;;;;;;5088177;28;20044;-75
2023/09/03 02:04:19;;;;;;;10.40;7.43;;;13.80;99.90;;;;;;5095345;28;20040;-76
2023/09/03 02:06:48;;;;;;;10.85;8.68;;;13.90;99.90;;;;;;5086393;28;20052;-76
2023/09/03 02:09:14;;;;;;;10.90;8.15;;;13.80;99.90;;;;;;5080005;28;20040;-76
2023/09/03 02:11:40;;;;;;;14.23;8.50;;;13.80;99.90;;;;;;5084829;28;20058;-76
2023/09/03 02:14:06;;;;;;;13.20;7.65;;;13.80;99.90;;;;;;5081186;28;20543;-76
2023/09/03 02:16:31;;;;;;;9.27;7.57;;;13.90;99.90;;;;;;5083907;28;20039;-76
2023/09/03 02:18:57;;;;;;;15.88;8.40;;;13.80;99.90;;;;;;5089917;28;20043;-76
2023/09/03 02:21:23;;;;;;;11.77;8.32;;;13.80;99.90;;;;;;5083752;28;20044;-76
2023/09/03 02:23:48;;;;;;;9.35;7.57;;;13.80;99.90;;;;;;5074399;28;20055;-76
2023/09/03 02:26:14;;;;;;;11.35;7.18;;;13.80;99.90;;;;;;5080664;28;20041;-76
2023/09/03 02:28:40;;;;;;;13.07;7.45;;;13.80;99.90;;;;;;5074972;28;20036;-76
2023/09/03 02:31:06;;;;;;;10.82;8.40;;;13.80;99.90;;;;;;5108617;28;20048;-76
2023/09/03 02:33:32;;;;;;;13.52;8.40;;;13.80;99.90;;;;;;5084583;28;20044;-76
2023/09/03 02:35:58;;;;;;;11.85;8.60;;;13.80;99.90;;;;;;5084017;28;20036;-76
2023/09/03 02:38:24;;;;;;;10.38;8.35;;;13.80;99.90;;;;;;5084296;28;20490;-76
2023/09/03 02:40:49;;;;;;;11.00;8.52;;;13.80;99.90;;;;;;5083346;28;20044;-76
2023/09/03 02:43:15;;;;;;;15.05;8.23;;;13.80;99.90;;;;;;5080295;28;20043;-76
2023/09/03 02:45:40;;;;;;;9.95;8.13;;;13.80;99.90;;;;;;5077309;28;20044;-76
2023/09/03 02:48:08;;;;;;;12.10;8.90;;;13.80;99.90;;;;;;5095969;28;20052;-76
2023/09/03 02:50:37;;;;;;;11.70;7.90;;;13.80;99.90;;;;;;5093043;28;20090;-76
2023/09/03 02:53:06;;;;;;;11.38;8.65;;;13.70;99.90;;;;;;5094851;28;20444;-76
2023/09/03 02:55:32;;;;;;;11.82;8.18;;;13.70;99.90;;;;;;5085020;28;20107;-75
2023/09/03 02:58:01;;;;;;;10.52;7.80;;;13.60;99.90;;;;;;5078009;28;20059;-75
2023/09/03 03:00:27;;;;;;;10.00;8.50;;;13.70;99.90;;;;;;5075193;28;20049;-75
2023/09/03 03:02:52;;;;;;;11.43;8.02;;;13.60;99.90;;;;;;5075622;28;20044;-76
2023/09/03 03:05:18;;;;;;;9.23;7.95;;;13.50;99.90;;;;;;5092930;28;20047;-76
2023/09/03 03:07:44;;;;;;;10.60;8.13;;;13.50;99.90;;;;;;5090020;28;20356;-76
2023/09/03 03:10:11;;;;;;;10.95;7.95;;;13.50;99.90;;;;;;5079353;28;20044;-76
2023/09/03 03:12:37;;;;;;;12.07;8.98;;;13.50;99.90;;;;;;5083011;28;20043;-75
2023/09/03 03:15:03;;;;;;;11.57;9.10;;;13.50;99.90;;;;;;5077861;28;20405;-75
2023/09/03 03:17:29;;;;;;;10.38;8.40;;;13.40;99.90;;;;;;5124992;27;20474;-75
2023/09/03 03:19:55;;;;;;;11.60;8.80;;;13.50;99.90;;;;;;5095542;28;20109;-75
2023/09/03 03:22:21;;;;;;;10.23;7.35;;;13.40;99.90;;;;;;5089431;28;20087;-75
2023/09/03 03:24:46;;;;;;;10.27;8.50;;;13.40;99.90;;;;;;5086709;28;20060;-75
2023/09/03 03:27:13;;;;;;;10.68;8.93;;;13.40;99.90;;;;;;5083855;28;20036;-75
2023/09/03 03:29:38;;;;;;;10.20;9.13;;;13.40;99.90;;;;;;5079109;28;20510;-75
2023/09/03 03:32:04;;;;;;;12.20;8.60;;;13.40;99.90;;;;;;5079437;28;20066;-75
2023/09/03 03:34:30;;;;;;;10.50;8.63;;;13.40;99.90;;;;;;5084225;28;20047;-75
2023/09/03 03:36:56;;;;;;;13.80;8.80;;;13.40;99.90;;;;;;5081556;28;20044;-75
2023/09/03 03:39:23;;;;;;;11.73;9.27;;;13.40;99.90;;;;;;5090983;28;20043;-75
2023/09/03 03:41:49;;;;;;;11.55;8.80;;;13.30;99.90;;;;;;5086106;28;20097;-75
2023/09/03 03:44:14;;;;;;;12.70;9.48;;;13.30;99.90;;;;;;5087619;28;20037;-75
2023/09/03 03:46:40;;;;;;;10.52;8.77;;;13.30;99.90;;;;;;5075612;28;20076;-76
2023/09/03 03:49:06;;;;;;;9.88;8.68;;;13.40;99.90;;;;;;5081792;28;20040;-76
2023/09/03 03:51:31;;;;;;;13.15;9.18;;;13.30;99.90;;;;;;5092668;28;20044;-76
2023/09/03 03:54:03;;;;;;;11.82;9.32;;;13.30;99.90;;;;;;5089034;28;20146;-76
2023/09/03 03:56:29;;;;;;;11.02;9.50;;;13.30;99.90;;;;;;5069141;28;20036;-76
2023/09/03 03:58:55;;;;;;;18.63;10.05;;;13.30;99.90;;;;;;5078920;28;20109;-76
2023/09/03 04:01:24;;;;;;;13.52;10.55;;;13.40;99.90;;;;;;5095249;28;20047;-76
2023/09/03 04:03:52;;;;;;;11.15;9.40;;;13.40;99.90;;;;;;5088724;28;20043;-76
2023/09/03 04:06:18;;;;;;;14.32;10.32;;;13.30;99.90;;;;;;5072603;28;20111;-75
2023/09/03 04:08:45;;;;;;;11.18;9.20;;;13.40;99.90;;;;;;5124622;27;20040;-75
2023/09/03 04:11:12;;;;;;;13.43;9.75;;;13.30;99.90;;;;;;5080645;28;20090;-75
2023/09/03 04:13:39;;;;;;;13.77;9.20;;;13.30;99.90;;;;;;5072465;28;20041;-75
2023/09/03 04:16:15;;;;;;;12.45;9.27;;;13.30;99.90;;;;;;5073691;28;20044;-76
2023/09/03 04:18:42;;;;;;;12.90;9.70;;;13.30;99.90;;;;;;5079290;28;20481;-76
2023/09/03 04:21:08;;;;;;;10.90;8.57;;;13.30;99.90;;;;;;5093351;28;20075;-75
2023/09/03 04:23:33;;;;;;;12.52;9.68;;;13.30;99.90;;;;;;5084483;28;20084;-75
2023/09/03 04:26:00;;;;;;;15.63;9.43;;;13.40;99.90;;;;;;5083761;28;20051;-76
2023/09/03 04:28:26;;;;;;;15.43;9.52;;;13.30;99.90;;;;;;5086809;28;20047;-76
2023/09/03 04:30:53;;;;;;;13.95;9.07;;;13.30;99.90;;;;;;5079529;28;20178;-76
2023/09/03 04:33:19;;;;;;;13.57;8.18;;;13.30;99.90;;;;;;5083242;28;20119;-76
2023/09/03 04:35:45;;;;;;;10.07;8.48;;;13.30;99.90;;;;;;5084713;28;20505;-76
2023/09/03 04:38:11;;;;;;;13.63;8.77;;;13.30;99.90;;;;;;5084338;28;20122;-76
2023/09/03 04:40:37;;;;;;;13.30;8.75;;;13.30;99.90;;;;;;5092272;28;20047;-76
2023/09/03 04:43:04;;;;;;;10.93;8.80;;;13.30;99.90;;;;;;5075319;28;20048;-76
2023/09/03 04:45:30;;;;;;;9.95;8.75;;;13.30;99.90;;;;;;5080388;28;20048;-76
2023/09/03 04:47:57;;;;;;;12.45;9.63;;;13.30;99.90;;;;;;5079506;28;20036;-76
2023/09/03 04:50:23;;;;;;;11.68;9.25;;;13.30;99.90;;;;;;5078083;28;20046;-76
2023/09/03 04:52:49;;;;;;;13.10;10.00;;;13.30;99.90;;;;;;5077589;28;20036;-76
2023/09/03 04:55:16;;;;;;;11.32;9.15;;;13.30;99.90;;;;;;5082605;28;20540;-76
2023/09/03 04:57:42;;;;;;;10.40;8.73;;;13.30;99.90;;;;;;5087080;28;20502;-76
2023/09/03 05:00:08;;;;;;;12.32;9.32;;;13.30;99.90;;;;;;5082279;28;20075;-76
2023/09/03 05:02:34;;;;;;;13.93;10.45;;;13.30;99.90;;;;;;5077427;28;20401;-75
2023/09/03 05:05:00;;;;;;;12.80;10.35;;;13.30;99.90;;;;;;5083381;28;20054;-76
2023/09/03 05:07:25;;;;;;;12.50;10.38;;;13.30;99.90;;;;;;5073956;28;20557;-76
2023/09/03 05:09:52;;;;;;;12.40;8.63;;;13.20;99.90;;;;;;5086487;28;20052;-75
2023/09/03 05:12:18;;;;;;;14.07;10.98;;;13.20;99.90;;;;;;5086518;28;20051;-75
2023/09/03 05:14:44;;;;;;;13.02;10.05;;;13.30;99.90;;;;;;5089201;28;20052;-75
2023/09/03 05:17:10;;;;;;;11.02;9.15;;;13.30;99.90;;;;;;5083826;28;20093;-75
2023/09/03 05:19:35;;;;;;;10.25;8.93;;;13.30;99.90;;;;;;5077537;28;20099;-76
2023/09/03 05:22:01;;;;;;;12.30;9.23;;;13.30;99.90;;;;;;5073223;28;20048;-75
2023/09/03 05:24:26;;;;;;;13.57;9.85;;;13.30;99.90;;;;;;5081645;28;20048;-75
2023/09/03 05:26:52;;;;;;;13.18;10.05;;;13.40;99.90;;;;;;5084421;28;20037;-75
2023/09/03 05:29:18;;;;;;;9.52;8.50;;;13.40;99.90;;;;;;5074030;28;20398;-76
2023/09/03 05:31:44;;;;;;;11.73;8.38;;;13.40;99.90;;;;;;5105613;28;20142;-76
2023/09/03 05:34:09;;;;;;;10.60;9.05;;;13.40;99.90;;;;;;5081589;28;20044;-76
2023/09/03 05:36:35;;;;;;;17.17;10.30;;;13.40;99.90;;;;;;5082182;28;20048;-76
2023/09/03 05:39:01;;;;;;;11.73;9.55;;;13.50;99.90;;;;;;5088266;28;20079;-76
2023/09/03 05:41:27;;;;;;;11.20;8.82;;;13.50;99.90;;;;;;5076705;28;20116;-76
2023/09/03 05:43:53;;;;;;;11.30;8.57;;;13.60;99.90;;;;;;5087322;28;20119;-76
2023/09/03 05:46:19;;;;;;;12.30;9.07;;;13.60;99.90;;;;;;5076198;28;20037;-76
2023/09/03 05:48:49;;;;;;;12.07;8.85;;;13.70;99.90;;;;;;5092520;28;20114;-76
2023/09/03 05:51:15;;;;;;;11.60;9.32;;;13.70;99.90;;;;;;5096464;28;20068;-75
2023/09/03 05:53:41;;;;;;;10.07;8.35;;;13.80;99.90;;;;;;5088815;28;20483;-76
2023/09/03 05:56:08;;;;;;;11.07;7.80;;;13.90;99.90;;;;;;5084394;28;20075;-75
2023/09/03 05:58:34;;;;;;;10.27;7.53;;;13.90;99.90;;;;;;5075541;28;20055;-76
2023/09/03 06:01:07;;;;;;;11.63;8.25;;;14.00;99.90;;;;;;5073363;28;20036;-76
2023/09/03 06:03:33;;;;;;;9.85;8.05;;;14.10;99.90;;;;;;5076909;28;20048;-75
2023/09/03 06:06:08;;;;;;;12.75;9.27;;;14.10;99.90;;;;;;5080366;28;20111;-75
2023/09/03 06:08:35;;;;;;;11.13;8.13;;;14.20;99.90;;;;;;5077617;28;20040;-75
2023/09/03 06:11:02;;;;;;;11.43;8.03;;;14.30;99.90;;;;;;5075240;28;20037;-76
2023/09/03 06:13:28;;;;;;;15.95;7.97;;;14.30;99.90;;;;;;5079352;28;20040;-76
2023/09/03 06:15:58;;;;;;;12.68;7.93;;;14.40;99.90;;;;;;5077419;28;20094;-76
2023/09/03 06:18:24;;;;;;;10.35;7.63;;;14.50;99.90;;;;;;5086213;28;20044;-75
2023/09/03 06:20:50;;;;;;;8.68;7.70;;;14.50;99.90;;;;;;5072367;28;20037;-76
2023/09/03 06:23:18;;;;;;;11.32;7.60;;;14.60;99.90;;;;;;5077105;28;20503;-75
2023/09/03 06:25:49;;;;;;;10.90;8.23;;;14.70;99.90;;;;;;5081348;28;20529;-75
2023/09/03 06:28:15;;;;;;;10.32;7.47;;;14.80;99.90;;;;;;5076076;28;20094;-74
2023/09/03 06:30:41;;;;;;;9.13;6.80;;;14.90;99.90;;;;;;5078608;28;20485;-75
2023/09/03 06:33:07;;;;;;;10.65;7.32;;;15.00;99.90;;;;;;5092859;28;20044;-75
2023/09/03 06:35:33;;;;;;;11.80;7.47;;;15.20;99.90;;;;;;5095097;28;20047;-75
2023/09/03 06:37:59;;;;;;;10.57;6.65;;;15.30;99.90;;;;;;5088126;28;20418;-76
2023/09/03 06:40:25;;;;;;;8.48;6.30;;;15.40;99.90;;;;;;5088998;28;20123;-76
2023/09/03 06:42:51;;;;;;;7.75;6.35;;;15.50;99.90;;;;;;5082387;28;20082;-76
2023/09/03 06:45:17;;;;;;;10.98;5.90;;;15.70;99.90;;;;;;5086378;28;20080;-76
2023/09/03 06:47:44;;;;;;;9.90;5.50;;;16.00;99.90;;;;;;5077437;28;20133;-75
2023/09/03 06:50:10;;;;;;;7.05;5.07;;;16.20;99.90;;;;;;5090222;28;20487;-75
2023/09/03 06:52:36;;;;;;;6.63;4.60;;;16.50;99.90;;;;;;5076358;28;20040;-75
2023/09/03 06:55:02;;;;;;;5.55;4.25;;;16.80;99.90;;;;;;5087461;28;20051;-76
2023/09/03 06:57:28;;;;;;;7.43;3.95;;;17.00;99.90;;;;;;5094835;28;20408;-77
2023/09/03 06:59:55;;;;;;;11.95;4.35;;;17.10;99.90;;;;;;5089353;28;20036;-76
2023/09/03 07:02:20;;;;;;;7.93;4.22;;;17.20;99.90;;;;;;5091296;28;20040;-76
2023/09/03 07:04:46;;;;;;;6.60;4.07;;;17.30;99.90;;;;;;5091615;28;20370;-76
2023/09/03 07:07:12;;;;;;;6.35;4.00;;;17.60;99.90;;;;;;5080615;28;20032;-76
2023/09/03 07:09:38;;;;;;;5.70;4.28;;;17.70;99.90;;;;;;5093188;28;20117;-76
2023/09/03 07:12:04;;;;;;;6.15;3.67;;;17.70;99.90;;;;;;5086795;28;20048;-76
2023/09/03 07:14:31;;;;;;;7.57;3.65;;;17.80;99.90;;;;;;5077013;28;20602;-76
2023/09/03 07:16:57;;;;;;;3.88;2.80;;;17.90;99.90;;;;;;5084044;28;20086;-76
2023/09/03 07:19:23;;;;;;;14.45;3.78;;;17.90;99.90;;;;;;5083744;28;20429;-76
2023/09/03 07:21:48;;;;;;;7.72;3.40;;;18.00;99.90;;;;;;5076355;28;20555;-76
2023/09/03 07:24:15;;;;;;;4.38;3.42;;;18.00;99.90;;;;;;5082905;28;20040;-77
2023/09/03 07:26:41;;;;;;;7.95;3.55;;;18.00;99.90;;;;;;5076602;28;20047;-77
2023/09/03 07:29:07;;;;;;;5.55;3.30;;;18.00;99.90;;;;;;5083834;28;20054;-77
2023/09/03 07:31:32;;;;;;;6.75;3.75;;;18.00;99.90;;;;;;5065474;28;20028;-76
2023/09/03 07:33:59;;;;;;;4.78;2.90;;;18.00;99.90;;;;;;5092220;28;20154;-77
2023/09/03 07:36:25;;;;;;;5.43;3.33;;;18.00;99.90;;;;;;5084244;28;20078;-77
2023/09/03 07:38:51;;;;;;;6.93;3.20;;;18.00;99.90;;;;;;5088161;28;20044;-77
2023/09/03 07:41:16;;;;;;;6.72;2.90;;;18.00;99.90;;;;;;5114389;28;20514;-78
2023/09/03 07:43:42;;;;;;;6.07;3.40;;;17.90;99.90;;;;;;5091074;28;20367;-78
2023/09/03 07:46:08;;;;;;;7.97;3.40;;;17.90;99.90;;;;;;5086257;28;20494;-78
2023/09/03 07:48:34;;;;;;;4.88;2.85;;;17.90;99.90;;;;;;5111402;28;20040;-78
2023/09/03 07:51:00;;;;;;;6.18;3.83;;;17.90;99.90;;;;;;5098016;28;20048;-78
2023/09/03 07:53:25;;;;;;;5.75;3.30;;;18.00;99.90;;;;;;5083529;28;20406;-78
2023/09/03 07:55:51;;;;;;;9.48;3.78;;;18.10;99.90;;;;;;5082108;28;20480;-78
2023/09/03 07:58:17;;;;;;;6.05;3.95;;;18.20;99.90;;;;;;5080027;28;20059;-79
2023/09/03 08:00:43;;;;;;;7.57;3.45;;;19.60;99.90;;;;;;5085436;28;20055;-78
2023/09/03 08:03:08;;;;;;;5.80;3.35;;;18.40;99.90;;;;;;5073496;28;20091;-78
2023/09/03 08:05:34;;;;;;;10.60;3.13;;;18.50;99.90;;;;;;5085457;28;20036;-78
2023/09/03 08:08:00;;;;;;;6.43;2.65;;;18.60;99.90;;;;;;5083854;28;20173;-78
2023/09/03 08:10:26;;;;;;;7.18;3.00;;;18.70;99.90;;;;;;5075483;28;20048;-78
2023/09/03 08:12:51;;;;;;;4.82;2.60;;;18.80;99.90;;;;;;5093754;28;20040;-77
2023/09/03 08:15:18;;;;;;;6.63;2.95;;;18.90;99.90;;;;;;5084320;28;20398;-77
2023/09/03 08:17:44;;;;;;;5.65;2.80;;;18.90;99.90;;;;;;5080585;28;20039;-77
2023/09/03 08:20:12;;;;;;;5.10;2.47;;;19.00;99.90;;;;;;5078047;28;20036;-77
2023/09/03 08:22:37;;;;;;;5.53;2.72;;;19.10;99.90;;;;;;5083244;28;20056;-76
2023/09/03 08:25:04;;;;;;;5.90;3.33;;;19.10;99.90;;;;;;5091638;28;20098;-76
2023/09/03 08:27:29;;;;;;;5.07;2.63;;;19.20;99.90;;;;;;5090117;28;20466;-76
2023/09/03 08:29:55;;;;;;;7.80;2.67;;;19.30;99.90;;;;;;5082625;28;20040;-77
2023/09/03 08:32:21;;;;;;;7.88;2.40;;;19.20;99.90;;;;;;5076452;28;20375;-76
2023/09/03 08:34:47;;;;;;;4.75;2.50;;;19.30;99.90;;;;;;5088461;28;20050;-77
2023/09/03 08:37:13;;;;;;;6.57;2.40;;;19.30;99.90;;;;;;5090427;28;20486;-77
2023/09/03 08:39:39;;;;;;;5.03;2.25;;;19.30;99.90;;;;;;5072004;28;20048;-77
2023/09/03 08:42:05;;;;;;;5.00;2.22;;;19.40;99.90;;;;;;5093823;28;20071;-77
2023/09/03 08:44:45;;;;;;;5.13;2.30;;;19.50;99.90;;;;;;5089885;28;20056;-78
2023/09/03 08:47:16;;;;;;;3.65;2.10;;;19.70;99.90;;;;;;5078939;28;20047;-77
2023/09/03 08:49:44;;;;;;;5.55;2.20;;;19.80;99.90;;;;;;5109300;28;20106;-77
2023/09/03 08:52:10;;;;;;;3.08;2.00;;;19.90;99.90;;;;;;5098718;28;20047;-76
2023/09/03 08:54:37;;;;;;;5.30;2.10;;;20.10;99.90;;;;;;5125722;27;20048;-77
2023/09/03 08:57:04;;;;;;;4.97;2.20;;;20.20;99.90;;;;;;5090763;28;20123;-77
2023/09/03 08:59:30;;;;;;;3.45;1.80;;;20.20;99.90;;;;;;5077270;28;20123;-77
2023/09/03 09:01:59;;;;;;;3.90;1.90;;;20.30;99.90;;;;;;5091275;28;20047;-77
2023/09/03 09:04:30;;;;;;;4.45;2.10;;;20.40;99.90;;;;;;5089223;28;20080;-77
2023/09/03 09:07:00;;;;;;;5.45;2.15;;;20.50;99.90;;;;;;5082159;28;20044;-77
2023/09/03 09:09:29;;;;;;;4.38;2.25;;;20.60;99.90;;;;;;5078828;28;20044;-77
2023/09/03 09:12:03;;;;;;;6.22;2.30;;;20.60;99.90;;;;;;5087822;28;20052;-76
2023/09/03 09:14:43;;;;;;;4.93;1.80;;;20.70;99.90;;;;;;5084502;28;20040;-78
2023/09/03 09:17:13;;;;;;;4.22;2.08;;;20.70;99.90;;;;;;5075970;28;20141;-77
2023/09/03 09:19:39;;;;;;;4.40;1.90;;;20.80;99.90;;;;;;5073929;28;20347;-77
2023/09/03 09:22:04;;;;;;;3.40;2.17;;;20.80;99.90;;;;;;5085229;28;20048;-77
2023/09/03 09:24:30;;;;;;;5.30;2.15;;;20.80;99.90;;;;;;5093977;28;20048;-77
2023/09/03 09:27:16;;;;;;;3.85;2.20;;;20.80;99.90;;;;;;5072023;28;20048;-77
2023/09/03 09:29:43;;;;;;;3.67;1.92;;;20.90;99.90;;;;;;5082666;28;20127;-77
2023/09/03 09:32:20;;;;;;;6.10;2.42;;;21.00;99.90;;;;;;5087462;28;20401;-77
2023/09/03 09:34:46;;;;;;;4.03;2.00;;;21.10;99.90;;;;;;5084816;28;20094;-78
2023/09/03 09:37:13;;;;;;;5.88;2.30;;;21.10;99.90;;;;;;5076057;28;20044;-76
2023/09/03 09:39:46;;;;;;;4.85;2.10;;;21.20;99.90;;;;;;5083406;28;20040;-78
2023/09/03 09:42:18;;;;;;;3.53;2.03;;;21.20;99.90;;;;;;5079528;28;20071;-77
2023/09/03 09:44:56;;;;;;;4.50;2.00;;;21.20;99.90;;;;;;5090329;28;20052;-77
2023/09/03 09:47:22;;;;;;;4.57;2.70;;;21.30;99.90;;;;;;5087388;28;20044;-78
2023/09/03 09:49:48;;;;;;;3.33;2.22;;;21.30;99.90;;;;;;5080892;28;20040;-77
2023/09/03 09:52:18;;;;;;;5.15;2.30;;;21.40;99.90;;;;;;5087207;28;20119;-77
2023/09/03 09:54:46;;;;;;;4.45;2.05;;;21.60;99.90;;;;;;5080104;28;20036;-77
2023/09/03 09:57:17;;;;;;;4.45;2.10;;;21.50;99.90;;;;;;5076973;28;20372;-77
2023/09/03 09:59:43;;;;;;;6.32;2.58;;;21.60;99.90;;;;;;5078694;28;20487;-77
2023/09/03 10:02:16;;;;;;;4.75;2.10;;;21.70;99.90;;;;;;5086812;28;20042;-76
2023/09/03 10:04:52;;;;;;;2.75;1.90;;;21.80;99.90;;;;;;5098293;28;20083;-76
2023/09/03 10:07:18;;;;;;;4.10;2.25;;;21.90;99.90;;;;;;5087224;28;20044;-77
2023/09/03 10:09:45;;;;;;;5.80;2.70;;;21.90;99.90;;;;;;5082256;28;20539;-77
2023/09/03 10:12:11;;;;;;;5.15;2.17;;;21.90;99.90;;;;;;5095409;28;20459;-76
2023/09/03 10:14:38;;;;;;;4.93;1.95;;;21.90;99.90;;;;;;5075816;28;21541;-76
2023/09/03 10:17:08;;;;;;;5.97;1.67;;;22.00;99.90;;;;;;5082276;28;20111;-75
2023/09/03 10:19:50;;;;;;;3.17;1.98;;;22.10;99.90;;;;;;5092394;28;20517;-77
2023/09/03 10:22:18;;;;;;;4.80;2.08;;;22.30;99.90;;;;;;5117830;27;20056;-76
2023/09/03 10:24:58;;;;;;;4.75;1.60;;;22.50;99.90;;;;;;5092697;28;20048;-76
2023/09/03 10:27:28;;;;;;;3.28;1.65;;;22.60;99.90;;;;;;5086201;28;20040;-76
2023/09/03 10:29:58;;;;;;;3.17;1.55;;;22.80;99.90;;;;;;5084087;28;20055;-76
2023/09/03 10:32:25;;;;;;;3.10;1.55;;;23.00;99.90;;;;;;5088379;28;20102;-77
2023/09/03 10:34:51;;;;;;;4.20;1.60;;;23.30;99.90;;;;;;5099571;28;20109;-77
2023/09/03 10:37:16;;;;;;;4.65;1.63;;;23.40;99.90;;;;;;5091333;28;20036;-77
2023/09/03 10:39:47;;;;;;;2.22;1.40;;;23.50;99.90;;;;;;5089342;28;20039;-78
2023/09/03 10:42:16;;;;;;;6.85;2.25;;;23.60;99.90;;;;;;5092322;28;20054;-77
2023/09/03 10:44:51;;;;;;;4.47;1.83;;;23.80;99.90;;;;;;5093539;28;20071;-76
2023/09/03 10:47:19;;;;;;;3.67;1.70;;;23.80;99.90;;;;;;5085418;28;20390;-75
2023/09/03 10:49:47;;;;;;;4.57;1.50;;;23.70;99.90;;;;;;5084637;28;20038;-77
2023/09/03 10:52:28;;;;;;;2.25;1.30;;;23.50;99.90;;;;;;5091379;28;20038;-76
2023/09/03 10:55:17;;;;;;;3.88;1.65;;;23.50;99.90;;;;;;5076980;28;20043;-77
2023/09/03 10:57:46;;;;;;;3.28;1.73;;;23.70;99.90;;;;;;5088339;28;20040;-77
2023/09/03 11:00:20;;;;;;;3.95;1.55;;;23.70;99.50;;;;;;5083783;28;20039;-76
2023/09/03 11:02:46;;;;;;;2.58;1.42;;;23.60;99.90;;;;;;5081313;28;20047;-78
2023/09/03 11:05:28;;;;;;;4.80;1.90;;;23.60;99.90;;;;;;5085171;28;20504;-77
2023/09/03 11:08:32;;;;;;;4.18;1.67;;;23.70;99.90;;;;;;5084665;28;20417;-77
2023/09/03 11:10:59;;;;;;;3.50;1.85;;;23.90;99.90;;;;;;5094489;28;20486;-77
2023/09/03 11:13:26;;;;;;;2.92;1.70;;;23.80;99.90;;;;;;5089107;28;20040;-77
2023/09/03 11:15:58;;;;;;;6.70;1.80;;;24.00;99.90;;;;;;5090390;28;20044;-76
2023/09/03 11:18:27;;;;;;;2.85;1.67;;;24.10;99.90;;;;;;5077369;28;20044;-78
2023/09/03 11:20:55;;;;;;;3.20;1.50;;;24.40;99.90;;;;;;5097034;28;20490;-77
2023/09/03 11:23:22;;;;;;;3.97;1.77;;;24.70;99.90;;;;;;5091817;28;20106;-76
2023/09/03 11:25:47;;;;;;;2.67;1.58;;;25.10;99.90;;;;;;5091097;28;20044;-77
2023/09/03 11:28:14;;;;;;;2.38;1.60;;;25.30;99.90;;;;;;5087124;28;20032;-76
2023/09/03 11:30:44;;;;;;;5.38;1.85;;;25.50;99.90;;;;;;5093760;28;20099;-76
2023/09/03 11:33:23;;;;;;;4.47;1.50;;;25.70;99.90;;;;;;5095547;28;20044;-76
2023/09/03 11:35:51;;;;;;;3.88;1.65;;;25.90;99.10;;;;;;5095948;28;20126;-76
2023/09/03 11:38:16;;;;;;;5.32;1.60;;;26.00;99.10;;;;;;5084756;28;20047;-76
2023/09/03 11:40:42;;;;;;;3.55;1.40;;;26.10;95.80;;;;;;5094616;28;20111;-76
2023/09/03 11:43:09;;;;;;;3.25;1.77;;;26.00;96.60;;;;;;5073254;28;20048;-75
2023/09/03 11:45:36;;;;;;;4.30;2.85;;;26.00;95.20;;;;;;5098642;28;20090;-77
2023/09/03 11:48:06;;;;;;;3.28;1.50;;;25.90;96.90;;;;;;5085969;28;20060;-75
2023/09/03 11:50:33;;;;;;;5.00;1.50;;;25.90;98.30;;;;;;5088532;28;20036;-76
2023/09/03 11:52:59;;;;;;;5.00;1.77;;;26.00;98.10;;;;;;5097270;28;20039;-77
2023/09/03 11:55:49;;;;;;;3.10;1.50;;;26.10;97.80;;;;;;5089667;28;20135;-75
2023/09/03 11:58:18;;;;;;;2.75;1.42;;;26.30;95.20;;;;;;5085783;28;20052;-75
2023/09/03 12:00:45;;;;;;;2.40;1.50;;;26.30;95.30;;;;;;5090589;28;20047;-76
2023/09/03 12:03:11;;;;;;;2.35;1.40;;;26.20;93.30;;;;;;5084163;28;20119;-75
2023/09/03 12:05:38;;;;;;;4.35;1.45;;;26.20;94.70;;;;;;5080906;28;20048;-76
2023/09/03 12:08:05;;;;;;;3.13;1.52;;;26.30;93.60;;;;;;5080263;28;20070;-77
2023/09/03 12:10:31;;;;;;;2.83;1.38;;;26.30;94.70;;;;;;5085256;28;20048;-75
2023/09/03 12:13:03;;;;;;;3.03;1.33;;;26.50;95.60;;;;;;5087514;28;20530;-75
2023/09/03 12:15:31;;;;;;;2.55;1.50;;;26.70;95.40;;;;;;5080514;28;20068;-76
2023/09/03 12:18:07;;;;;;;;;;;27.00;95.50;;;;;;5079304;28;20601;-76
2023/09/03 12:20:42;;;;;;;3.60;1.70;;;27.10;94.10;;;;;;5082081;28;19970;-76
2023/09/03 12:23:14;;;;;;;3.22;1.60;;;27.00;93.80;;;;;;5086340;28;20398;-76
2023/09/03 12:25:41;;;;;;;3.92;1.95;;;27.00;94.80;;;;;;5086810;28;20049;-75
2023/09/03 12:28:08;;;;;;;2.72;1.52;;;27.20;94.70;;;;;;5082898;28;20075;-76
2023/09/03 12:30:59;;;;;;;3.17;1.70;;;27.20;91.30;;;;;;5083721;28;20470;-76
2023/09/03 12:33:47;;;;;;;6.07;1.83;;;26.80;91.50;;;;;;5082210;28;20483;-76
2023/09/03 12:36:18;;;;;;;4.35;2.25;;;26.50;92.60;;;;;;5084182;28;20143;-75
2023/09/03 12:38:57;;;;;;;4.13;1.90;;;26.20;91.20;;;;;;5082977;28;20044;-76
2023/09/03 12:41:25;;;;;;;2.55;1.50;;;25.80;91.80;;;;;;5105026;28;20068;-76
2023/09/03 12:43:51;;;;;;;17.90;2.08;;;25.60;92.70;;;;;;5087487;28;20067;-75
2023/09/03 12:46:17;;;;;;;2.42;1.42;;;25.50;93.40;;;;;;5092137;28;20040;-75